createdAt,value
2019-03-19T00:00:40.912Z,10.90
2019-03-19T00:03:11.581Z,11.63
2019-03-19T00:05:42.238Z,10.97
2019-03-19T00:08:12.725Z,11.60
2019-03-19T00:10:43.199Z,12.13
2019-03-19T00:13:15.184Z,11.30
2019-03-19T00:15:53.832Z,11.80
2019-03-19T00:18:25.914Z,12.57
2019-03-19T00:20:56.395Z,11.10
2019-03-19T00:23:26.916Z,12.67
2019-03-19T00:25:57.399Z,11.97
2019-03-19T00:28:27.935Z,13.77
2019-03-19T00:30:58.370Z,13.60
2019-03-19T00:33:28.827Z,13.07
2019-03-19T00:35:59.329Z,13.23
2019-03-19T00:38:29.792Z,13.90
2019-03-19T00:41:00.683Z,15.10
2019-03-19T00:43:31.315Z,15.57
2019-03-19T00:46:01.889Z,15.80
2019-03-19T00:48:32.477Z,16.10
2019-03-19T00:51:03.048Z,18.80
2019-03-19T00:53:33.566Z,18.97
2019-03-19T00:56:04.166Z,22.13
2019-03-19T00:58:38.623Z,24.33
2019-03-19T01:01:09.153Z,24.53
2019-03-19T01:03:40.574Z,23.37
2019-03-19T01:06:11.067Z,22.70
2019-03-19T01:08:41.538Z,24.17
2019-03-19T01:11:11.999Z,25.00
2019-03-19T01:13:42.453Z,23.57
2019-03-19T01:16:14.889Z,26.63
2019-03-19T01:18:45.398Z,25.33
2019-03-19T01:21:15.843Z,24.93
2019-03-19T01:23:46.317Z,26.33
2019-03-19T01:26:16.782Z,25.23
2019-03-19T01:28:47.305Z,25.73
2019-03-19T01:31:17.779Z,26.70
2019-03-19T01:33:48.258Z,25.13
2019-03-19T01:36:18.709Z,26.50
2019-03-19T01:38:49.174Z,26.07
2019-03-19T01:41:19.613Z,26.53
2019-03-19T01:43:50.071Z,26.87
2019-03-19T01:46:20.570Z,26.10
2019-03-19T01:48:55.093Z,27.63
2019-03-19T01:51:25.799Z,26.23
2019-03-19T01:53:56.291Z,26.40
2019-03-19T01:56:26.816Z,27.77
2019-03-19T01:58:57.282Z,26.87
2019-03-19T02:01:27.909Z,25.73
2019-03-19T02:03:58.360Z,28.53
2019-03-19T02:06:28.812Z,27.50
2019-03-19T02:08:59.342Z,30.70
2019-03-19T02:11:29.815Z,33.00
2019-03-19T02:14:00.346Z,31.23
2019-03-19T02:16:30.837Z,32.20
2019-03-19T02:19:01.410Z,32.30
2019-03-19T02:21:31.829Z,32.10
2019-03-19T02:24:02.316Z,31.03
2019-03-19T02:26:32.844Z,31.00
2019-03-19T02:29:03.413Z,31.97
2019-03-19T02:34:33.093Z,32.10
2019-03-19T02:37:03.618Z,31.43
2019-03-19T02:39:34.233Z,33.43
2019-03-19T02:42:04.780Z,32.40
2019-03-19T02:44:35.325Z,32.10
2019-03-19T02:47:05.766Z,32.97
2019-03-19T02:49:36.358Z,35.93
2019-03-19T02:52:06.956Z,36.00
2019-03-19T02:54:53.394Z,38.97
2019-03-19T02:57:23.976Z,38.67
2019-03-19T02:59:55.988Z,41.53
2019-03-19T03:02:26.569Z,42.97
2019-03-19T03:04:57.232Z,42.37
2019-03-19T03:07:27.653Z,38.87
2019-03-19T03:09:58.096Z,37.97
2019-03-19T03:12:28.584Z,37.63
2019-03-19T03:14:59.138Z,37.60
2019-03-19T03:17:29.690Z,36.13
2019-03-19T03:20:00.125Z,35.87
2019-03-19T03:22:30.582Z,34.97
2019-03-19T03:25:01.056Z,35.10
2019-03-19T03:27:34.094Z,36.67
2019-03-19T03:30:08.590Z,39.43
2019-03-19T03:32:40.682Z,38.20
2019-03-19T03:35:12.697Z,37.50
2019-03-19T03:37:43.284Z,38.40
2019-03-19T03:43:06.924Z,40.60
2019-03-19T03:45:37.522Z,42.57
2019-03-19T03:48:09.554Z,41.37
2019-03-19T03:50:40.185Z,38.63
2019-03-19T03:53:16.883Z,37.80
2019-03-19T03:55:47.521Z,36.50
2019-03-19T03:58:18.029Z,38.07
2019-03-19T04:00:51.297Z,37.43
2019-03-19T04:06:32.507Z,35.77
2019-03-19T04:09:16.263Z,38.23
2019-03-19T04:11:46.832Z,36.57
2019-03-19T04:14:17.322Z,37.10
2019-03-19T04:16:47.817Z,37.73
2019-03-19T04:19:20.386Z,38.13
2019-03-19T04:24:44.677Z,40.13
2019-03-19T04:27:16.650Z,41.53
2019-03-19T04:29:47.645Z,40.73
2019-03-19T04:32:34.089Z,38.77
2019-03-19T04:35:10.246Z,37.40
2019-03-19T04:38:01.192Z,35.37
2019-03-19T04:40:31.387Z,32.77
2019-03-19T04:43:03.558Z,32.20
2019-03-19T04:45:37.199Z,33.77
2019-03-19T04:48:07.771Z,32.33
2019-03-19T04:50:38.331Z,33.90
2019-03-19T04:53:10.341Z,34.90
2019-03-19T04:55:40.795Z,34.40
2019-03-19T04:58:13.026Z,34.83
2019-03-19T05:00:45.122Z,35.13
2019-03-19T05:03:17.146Z,34.37
2019-03-19T05:05:47.566Z,35.30
2019-03-19T05:08:23.277Z,37.07
2019-03-19T05:10:55.307Z,35.97
2019-03-19T05:13:25.782Z,35.40
2019-03-19T05:16:00.521Z,35.23
2019-03-19T05:21:23.500Z,36.90
2019-03-19T05:23:53.952Z,34.23
2019-03-19T05:26:26.073Z,34.43
2019-03-19T05:28:58.164Z,34.40
2019-03-19T05:31:28.732Z,35.37
2019-03-19T05:34:03.733Z,34.17
2019-03-19T05:36:34.302Z,37.93
2019-03-19T05:39:09.847Z,34.73
2019-03-19T05:41:42.610Z,35.37
2019-03-19T05:44:16.481Z,32.90
2019-03-19T05:46:51.299Z,32.03
2019-03-19T05:49:29.151Z,32.47
2019-03-19T05:51:59.632Z,32.47
2019-03-19T05:54:32.756Z,31.27
2019-03-19T05:57:06.176Z,30.37
2019-03-19T05:59:41.074Z,30.03
2019-03-19T06:02:11.595Z,30.00
2019-03-19T06:04:43.751Z,28.87
2019-03-19T06:07:15.906Z,28.97
2019-03-19T06:09:49.047Z,26.77
2019-03-19T06:12:21.315Z,26.23
2019-03-19T06:14:52.006Z,27.50
2019-03-19T06:17:23.662Z,24.60
2019-03-19T06:19:56.565Z,24.30
2019-03-19T06:22:28.694Z,22.63
2019-03-19T06:25:04.212Z,23.47
2019-03-19T06:27:34.834Z,20.40
2019-03-19T06:33:12.009Z,21.03
2019-03-19T06:35:44.031Z,21.53
2019-03-19T06:38:17.391Z,21.20
2019-03-19T06:40:48.962Z,20.50
2019-03-19T06:43:23.005Z,21.07
2019-03-19T06:46:08.618Z,20.63
2019-03-19T06:48:41.930Z,18.80
2019-03-19T06:51:20.551Z,19.83
2019-03-19T06:53:51.284Z,20.97
2019-03-19T06:59:15.832Z,19.90
2019-03-19T07:01:50.460Z,19.53
2019-03-19T07:04:20.976Z,20.33
2019-03-19T07:06:52.822Z,18.47
2019-03-19T07:09:28.917Z,17.63
2019-03-19T07:12:01.679Z,15.60
2019-03-19T07:14:34.055Z,14.83
2019-03-19T07:17:05.103Z,13.93
2019-03-19T07:19:53.378Z,14.57
2019-03-19T07:22:30.806Z,11.73
2019-03-19T07:25:03.171Z,11.27
2019-03-19T07:27:35.885Z,12.00
2019-03-19T07:30:23.353Z,11.03
2019-03-19T07:32:56.261Z,10.17
2019-03-19T07:35:26.821Z,10.23
2019-03-19T07:37:58.967Z,10.77
2019-03-19T07:40:34.513Z,10.77
2019-03-19T07:43:05.095Z,10.70
2019-03-19T07:45:35.624Z,10.23
2019-03-19T07:48:06.128Z,10.80
2019-03-19T07:50:37.766Z,10.57
2019-03-19T07:53:08.377Z,9.43
2019-03-19T07:55:40.356Z,10.10
2019-03-19T07:58:15.322Z,10.40
2019-03-19T08:00:45.951Z,10.63
2019-03-19T08:03:17.989Z,10.73
2019-03-19T08:05:57.508Z,11.83
2019-03-19T08:08:28.157Z,10.40
2019-03-19T08:10:58.983Z,11.33
2019-03-19T08:13:30.440Z,11.03
2019-03-19T08:16:02.727Z,12.60
2019-03-19T08:18:36.249Z,11.20
2019-03-19T08:21:06.944Z,11.57
2019-03-19T08:23:40.081Z,10.30
2019-03-19T08:26:13.790Z,10.60
2019-03-19T08:28:55.032Z,11.73
2019-03-19T08:31:18.914Z,10.87
2019-03-19T08:33:49.448Z,11.53
2019-03-19T08:36:19.834Z,10.83
2019-03-19T08:38:50.292Z,11.33
2019-03-19T08:41:37.104Z,11.23
2019-03-19T08:44:07.792Z,9.07
2019-03-19T08:46:38.290Z,9.53
2019-03-19T08:49:08.893Z,17.00
2019-03-19T08:51:39.333Z,14.53
2019-03-19T08:54:11.169Z,12.70
2019-03-19T08:56:44.577Z,10.03
2019-03-19T08:59:17.443Z,9.73
2019-03-19T09:01:48.031Z,9.73
2019-03-19T09:04:18.632Z,9.83
2019-03-19T09:06:49.161Z,11.43
2019-03-19T09:09:21.390Z,9.57
2019-03-19T09:11:53.472Z,9.87
2019-03-19T09:14:28.561Z,9.13
2019-03-19T09:17:02.949Z,9.67
2019-03-19T09:19:34.361Z,8.77
2019-03-19T09:22:06.487Z,8.43
2019-03-19T09:24:45.310Z,9.00
2019-03-19T09:27:16.012Z,9.20
2019-03-19T09:29:48.303Z,8.73
2019-03-19T09:32:20.335Z,8.53
2019-03-19T09:34:52.214Z,9.30
2019-03-19T09:37:22.868Z,8.87
2019-03-19T09:39:53.297Z,8.17
2019-03-19T09:42:23.983Z,8.80
2019-03-19T09:44:58.479Z,8.07
2019-03-19T09:47:26.891Z,8.50
2019-03-19T09:49:58.836Z,9.50
2019-03-19T09:52:32.425Z,8.53
2019-03-19T09:55:05.856Z,8.93
2019-03-19T09:57:36.396Z,8.97
2019-03-19T10:00:18.500Z,9.37
2019-03-19T10:02:49.961Z,7.77
2019-03-19T10:05:22.160Z,8.00
2019-03-19T10:07:52.787Z,9.10
2019-03-19T10:10:27.145Z,8.67
2019-03-19T10:12:59.393Z,7.80
2019-03-19T10:15:30.691Z,8.20
2019-03-19T10:21:02.291Z,7.33
2019-03-19T10:23:34.162Z,7.70
2019-03-19T10:26:06.839Z,7.87
2019-03-19T10:28:42.676Z,8.57
2019-03-19T10:31:19.274Z,7.33
2019-03-19T10:33:47.103Z,7.47
2019-03-19T10:36:26.730Z,8.97
2019-03-19T10:38:57.363Z,7.77
2019-03-19T10:41:29.896Z,7.27
2019-03-19T10:44:01.792Z,7.33
2019-03-19T10:46:33.292Z,6.70
2019-03-19T10:49:04.166Z,6.03
2019-03-19T10:51:35.269Z,6.17
2019-03-19T10:54:08.935Z,6.93
2019-03-19T10:56:40.193Z,7.00
2019-03-19T10:59:12.139Z,6.73
2019-03-19T11:01:45.376Z,6.37
2019-03-19T11:04:16.691Z,6.40
2019-03-19T11:06:48.760Z,5.43
2019-03-19T11:09:19.467Z,6.03
2019-03-19T11:11:50.324Z,6.93
2019-03-19T11:14:24.788Z,7.10
2019-03-19T11:16:56.959Z,7.37
2019-03-19T11:19:29.189Z,6.40
2019-03-19T11:22:01.567Z,6.47
2019-03-19T11:24:32.287Z,5.47
2019-03-19T11:27:14.166Z,5.70
2019-03-19T11:29:46.149Z,5.50
2019-03-19T11:32:18.219Z,6.07
2019-03-19T11:34:51.743Z,5.87
2019-03-19T11:37:26.818Z,5.93
2019-03-19T11:39:59.061Z,5.33
2019-03-19T11:42:31.493Z,5.83
2019-03-19T11:45:02.198Z,5.87
2019-03-19T11:47:32.825Z,6.40
2019-03-19T11:50:11.343Z,6.03
2019-03-19T11:52:43.545Z,6.60
2019-03-19T11:55:15.125Z,6.40
2019-03-19T11:57:46.314Z,6.67
2019-03-19T12:00:21.275Z,7.60
2019-03-19T12:03:10.867Z,6.53
2019-03-19T12:05:35.506Z,6.23
2019-03-19T12:08:08.352Z,7.07
2019-03-19T12:10:38.979Z,6.17
2019-03-19T12:13:14.710Z,5.83
2019-03-19T12:15:45.359Z,6.60
2019-03-19T12:18:16.184Z,7.07
2019-03-19T12:20:51.044Z,6.90
2019-03-19T12:23:36.185Z,6.63
2019-03-19T12:29:23.122Z,6.33
2019-03-19T12:32:05.487Z,7.67
2019-03-19T12:38:05.830Z,7.33
2019-03-19T12:40:37.602Z,6.23
2019-03-19T12:43:08.211Z,5.60
2019-03-19T12:45:38.712Z,7.40
2019-03-19T12:48:09.223Z,6.60
2019-03-19T12:53:33.370Z,6.83
2019-03-19T12:56:03.822Z,7.27
2019-03-19T12:58:34.242Z,7.23
2019-03-19T13:01:04.894Z,6.87
2019-03-19T13:03:37.329Z,7.63
2019-03-19T13:06:07.957Z,7.80
2019-03-19T13:08:41.514Z,7.50
2019-03-19T13:11:12.150Z,8.10
2019-03-19T13:13:42.780Z,7.80
2019-03-19T13:16:14.962Z,8.77
2019-03-19T13:18:45.709Z,7.83
2019-03-19T13:21:24.036Z,7.90
2019-03-19T13:23:59.396Z,8.10
2019-03-19T13:26:29.967Z,9.07
2019-03-19T13:29:00.521Z,8.17
2019-03-19T13:31:33.919Z,9.20
2019-03-19T13:34:04.448Z,8.40
2019-03-19T13:36:34.962Z,8.60
2019-03-19T13:39:07.278Z,9.40
2019-03-19T13:41:37.805Z,9.00
2019-03-19T13:44:08.323Z,8.13
2019-03-19T13:46:41.889Z,8.83
2019-03-19T13:49:15.360Z,9.47
2019-03-19T13:52:04.053Z,9.47
2019-03-19T13:54:34.769Z,9.10
2019-03-19T13:57:05.215Z,7.97
2019-03-19T13:59:36.223Z,8.00
2019-03-19T14:02:06.913Z,7.77
2019-03-19T14:04:38.946Z,7.53
2019-03-19T14:07:19.712Z,7.97
2019-03-19T14:15:27.949Z,7.57
2019-03-19T14:18:01.595Z,7.83
2019-03-19T14:20:33.455Z,9.97
2019-03-19T14:23:04.856Z,10.67
2019-03-19T14:25:35.448Z,9.70
2019-03-19T14:28:05.951Z,10.10
2019-03-19T14:30:36.378Z,9.97
2019-03-19T14:33:16.571Z,9.23
2019-03-19T14:35:47.064Z,8.73
2019-03-19T14:38:35.387Z,9.43
2019-03-19T14:41:13.515Z,9.33
2019-03-19T14:43:49.404Z,9.57
2019-03-19T14:46:20.160Z,9.37
2019-03-19T14:48:50.889Z,8.90
2019-03-19T14:51:22.666Z,9.53
2019-03-19T14:53:53.205Z,9.17
2019-03-19T14:56:24.096Z,9.97
2019-03-19T14:58:57.243Z,10.00
2019-03-19T15:01:27.961Z,11.23
2019-03-19T15:07:22.498Z,11.27
2019-03-19T15:09:54.132Z,13.20
2019-03-19T15:12:25.649Z,11.67
2019-03-19T15:14:58.065Z,13.13
2019-03-19T15:17:28.662Z,14.10
2019-03-19T15:20:05.935Z,16.20
2019-03-19T15:26:13.500Z,13.80
2019-03-19T15:29:02.162Z,14.00
2019-03-19T15:31:32.545Z,12.70
2019-03-19T15:34:12.706Z,13.87
2019-03-19T15:36:43.625Z,13.63
2019-03-19T15:39:14.372Z,15.13
2019-03-19T15:41:44.974Z,15.50
2019-03-19T15:44:19.739Z,15.70
2019-03-19T15:46:51.915Z,16.10
2019-03-19T15:49:38.462Z,16.60
2019-03-19T15:52:02.552Z,16.10
2019-03-19T15:54:33.011Z,15.77
2019-03-19T15:57:03.454Z,16.20
2019-03-19T15:59:35.910Z,15.27
2019-03-19T16:02:07.950Z,16.30
2019-03-19T16:04:44.143Z,16.47
2019-03-19T16:07:14.710Z,17.97
2019-03-19T16:09:46.752Z,16.80
2019-03-19T16:12:17.318Z,17.00
2019-03-19T16:14:57.294Z,17.13
2019-03-19T16:17:30.264Z,16.50
2019-03-19T16:20:00.884Z,19.13
2019-03-19T16:22:37.079Z,19.30
2019-03-19T16:25:10.129Z,20.47
2019-03-19T16:27:40.615Z,19.43
2019-03-19T16:33:08.236Z,18.33
2019-03-19T16:38:43.676Z,17.47
2019-03-19T16:41:14.287Z,17.47
2019-03-19T16:44:01.395Z,19.93
2019-03-19T16:49:28.577Z,17.77
2019-03-19T16:49:58.028Z,15.77
2019-03-19T16:52:57.146Z,17.17
2019-03-19T16:58:43.639Z,17.27
2019-03-19T17:04:12.493Z,18.70
2019-03-19T17:06:46.311Z,18.67
2019-03-19T17:09:19.805Z,20.20
2019-03-19T17:12:10.470Z,20.93
2019-03-19T17:14:53.106Z,21.83
2019-03-19T17:17:23.081Z,23.67
2019-03-19T17:19:58.612Z,23.93
2019-03-19T17:23:04.300Z,24.03
2019-03-19T17:25:36.188Z,23.60
2019-03-19T17:28:22.092Z,25.07
2019-03-19T17:30:55.637Z,27.57
2019-03-19T17:33:37.888Z,29.07
2019-03-19T17:36:24.399Z,30.97
2019-03-19T17:38:57.324Z,32.97
2019-03-19T17:41:28.028Z,35.17
2019-03-19T17:46:49.854Z,35.17
2019-03-19T17:49:20.610Z,37.40
2019-03-19T17:51:51.137Z,39.50
2019-03-19T17:54:23.038Z,39.97
2019-03-19T17:56:59.477Z,38.97
2019-03-19T17:59:46.819Z,38.93
2019-03-19T18:02:25.201Z,37.93
2019-03-19T18:05:01.659Z,39.27
2019-03-19T18:07:34.129Z,38.27
2019-03-19T18:10:13.672Z,39.93
2019-03-19T18:12:44.490Z,31.63
2019-03-19T18:15:16.476Z,31.93
2019-03-19T18:17:51.402Z,29.43
2019-03-19T18:20:26.459Z,34.13
2019-03-19T18:23:06.258Z,28.20
2019-03-19T18:25:39.031Z,25.00
2019-03-19T18:28:18.243Z,26.03
2019-03-19T18:30:51.081Z,25.87
2019-03-19T18:33:29.296Z,25.20
2019-03-19T18:35:59.868Z,23.80
2019-03-19T18:38:31.999Z,29.93
2019-03-19T18:41:02.518Z,24.03
2019-03-19T18:43:40.915Z,23.90
2019-03-19T18:46:11.435Z,25.30
2019-03-19T18:48:42.092Z,23.30
2019-03-19T18:51:12.685Z,28.10
2019-03-19T18:53:43.284Z,22.00
2019-03-19T18:56:13.776Z,18.60
2019-03-19T18:58:52.629Z,18.10
2019-03-19T19:01:24.087Z,16.43
2019-03-19T19:03:54.587Z,16.57
2019-03-19T19:06:25.216Z,15.63
2019-03-19T19:08:59.592Z,16.93
2019-03-19T19:11:32.718Z,16.97
2019-03-19T19:14:03.358Z,17.07
2019-03-19T19:16:33.799Z,25.80
2019-03-19T19:19:04.517Z,17.07
2019-03-19T19:21:35.143Z,17.67
2019-03-19T19:24:08.856Z,18.73
2019-03-19T19:26:39.384Z,18.17
2019-03-19T19:29:09.978Z,17.77
2019-03-19T19:31:42.491Z,17.73
2019-03-19T19:34:12.683Z,18.67
2019-03-19T19:36:45.163Z,19.87
2019-03-19T19:39:17.470Z,22.10
2019-03-19T19:41:47.971Z,22.63
2019-03-19T19:44:18.523Z,23.50
2019-03-19T19:46:49.037Z,20.73
2019-03-19T19:49:21.528Z,22.63
2019-03-19T19:52:00.530Z,22.10
2019-03-19T19:54:31.106Z,20.80
2019-03-19T19:57:01.636Z,20.77
2019-03-19T19:59:33.141Z,21.63
2019-03-19T20:02:03.622Z,20.47
2019-03-19T20:04:42.189Z,22.00
2019-03-19T20:07:14.234Z,23.03
2019-03-19T20:09:44.674Z,22.77
2019-03-19T20:12:15.174Z,20.67
2019-03-19T20:14:45.634Z,21.20
2019-03-19T20:17:16.034Z,19.70
2019-03-19T20:19:46.446Z,20.60
2019-03-19T20:22:17.040Z,19.90
2019-03-19T20:24:47.408Z,18.87
2019-03-19T20:27:17.900Z,19.13
2019-03-19T20:29:48.368Z,18.07
2019-03-19T20:32:18.827Z,19.10
2019-03-19T20:34:49.249Z,18.57
2019-03-19T20:37:19.706Z,19.00
2019-03-19T20:39:50.281Z,18.93
2019-03-19T20:42:20.720Z,17.83
2019-03-19T20:44:51.157Z,18.47
2019-03-19T20:47:21.556Z,17.73
2019-03-19T20:49:52.142Z,18.97
2019-03-19T20:52:22.671Z,18.40
2019-03-19T20:54:53.103Z,18.90
2019-03-19T20:57:26.784Z,18.70
2019-03-19T20:59:57.210Z,19.67
2019-03-19T21:02:27.621Z,19.97
2019-03-19T21:04:58.139Z,20.57
2019-03-19T21:07:28.586Z,19.77
2019-03-19T21:09:59.065Z,19.67
2019-03-19T21:12:29.832Z,21.73
2019-03-19T21:15:00.449Z,21.13
2019-03-19T21:17:30.944Z,21.33
2019-03-19T21:20:01.461Z,22.50
2019-03-19T21:22:31.957Z,22.13
2019-03-19T21:25:02.424Z,21.73
2019-03-19T21:27:32.895Z,22.17
2019-03-19T21:30:03.567Z,21.63
2019-03-19T21:32:34.062Z,21.30
2019-03-19T21:35:05.839Z,20.63
2019-03-19T21:37:36.603Z,21.50
2019-03-19T21:40:14.358Z,20.90
2019-03-19T21:42:44.958Z,20.37
2019-03-19T21:45:23.154Z,20.87
2019-03-19T21:47:53.604Z,19.30
2019-03-19T21:50:24.739Z,20.13
2019-03-19T21:52:55.134Z,19.43
2019-03-19T21:55:25.559Z,19.33
2019-03-19T21:57:55.952Z,19.70
2019-03-19T22:00:29.059Z,19.37
2019-03-19T22:02:59.469Z,18.87
2019-03-19T22:05:29.944Z,18.40
2019-03-19T22:08:00.361Z,18.33
2019-03-19T22:10:30.849Z,17.97
2019-03-19T22:13:01.290Z,16.73
2019-03-19T22:15:31.700Z,18.00
2019-03-19T22:18:03.639Z,16.47
2019-03-19T22:20:34.116Z,16.70
2019-03-19T22:23:05.538Z,16.03
2019-03-19T22:25:35.941Z,15.53
2019-03-19T22:28:06.343Z,16.70
2019-03-19T22:30:37.334Z,16.07
2019-03-19T22:33:07.767Z,16.63
2019-03-19T22:35:38.158Z,16.40
2019-03-19T22:38:08.998Z,15.90
2019-03-19T22:40:39.467Z,16.83
2019-03-19T22:43:09.916Z,17.70
2019-03-19T22:45:40.350Z,17.10
2019-03-19T22:48:10.710Z,18.53
2019-03-19T22:50:41.198Z,18.33
2019-03-19T22:53:11.706Z,20.27
2019-03-19T22:55:42.147Z,20.90
2019-03-19T22:58:12.551Z,21.57
2019-03-19T23:00:44.770Z,22.90
2019-03-19T23:03:15.341Z,23.57
2019-03-19T23:05:45.843Z,23.77
2019-03-19T23:08:16.291Z,24.63
2019-03-19T23:10:47.250Z,27.40
2019-03-19T23:13:19.192Z,34.33
2019-03-19T23:15:49.635Z,42.63
2019-03-19T23:18:20.116Z,43.27
2019-03-19T23:20:50.559Z,45.17
2019-03-19T23:23:20.993Z,46.60
2019-03-19T23:25:51.417Z,49.27
2019-03-19T23:28:24.231Z,51.00
2019-03-19T23:30:56.186Z,47.90
2019-03-19T23:33:26.582Z,41.63
2019-03-19T23:35:57.063Z,37.30
2019-03-19T23:38:28.283Z,33.30
2019-03-19T23:40:58.758Z,31.13
2019-03-19T23:43:29.160Z,27.63
2019-03-19T23:45:59.553Z,29.47
2019-03-19T23:48:32.202Z,28.00
2019-03-19T23:51:02.643Z,26.27
2019-03-19T23:53:33.071Z,28.50
2019-03-19T23:56:03.498Z,31.43
2019-03-19T23:58:33.948Z,33.67
